createdAt,value
2022-08-10T00:02:12.884Z,71.40
2022-08-10T00:04:39.553Z,71.40
2022-08-10T00:07:06.342Z,71.40
2022-08-10T00:09:33.074Z,71.40
2022-08-10T00:12:19.543Z,71.50
2022-08-10T00:14:46.425Z,71.50
2022-08-10T00:17:13.204Z,71.50
2022-08-10T00:20:02.361Z,71.50
2022-08-10T00:22:26.823Z,71.60
2022-08-10T00:24:57.405Z,71.50
2022-08-10T00:27:58.658Z,71.60
2022-08-10T00:30:11.673Z,71.60
2022-08-10T00:32:38.378Z,71.60
2022-08-10T00:35:06.265Z,71.60
2022-08-10T00:37:32.954Z,71.60
2022-08-10T00:39:59.761Z,71.70
2022-08-10T00:42:26.663Z,71.70
2022-08-10T00:44:53.758Z,71.70
2022-08-10T00:47:35.673Z,71.80
2022-08-10T00:50:05.060Z,71.60
2022-08-10T00:52:31.922Z,71.80
2022-08-10T00:54:58.889Z,71.80
2022-08-10T00:57:25.891Z,71.70
2022-08-10T00:59:59.114Z,71.90
2022-08-10T01:02:28.183Z,71.90
2022-08-10T01:04:59.798Z,71.90
2022-08-10T01:07:28.151Z,71.80
2022-08-10T01:10:17.613Z,71.80
2022-08-10T01:12:55.135Z,71.80
2022-08-10T01:15:21.766Z,71.80
2022-08-10T01:18:03.061Z,71.90
2022-08-10T01:20:38.839Z,71.90
2022-08-10T01:23:20.812Z,71.90
2022-08-10T01:26:11.005Z,71.90
2022-08-10T01:28:45.448Z,72.10
2022-08-10T01:31:14.685Z,72.10
2022-08-10T01:33:58.366Z,72.50
2022-08-10T01:36:31.922Z,72.70
2022-08-10T01:39:01.498Z,72.20
2022-08-10T01:41:46.394Z,72.20
2022-08-10T01:44:14.836Z,72.30
2022-08-10T01:46:43.267Z,72.30
2022-08-10T01:49:11.467Z,72.30
2022-08-10T01:51:50.824Z,72.30
2022-08-10T01:54:22.323Z,72.30
2022-08-10T01:56:51.111Z,72.30
2022-08-10T01:59:31.126Z,72.30
2022-08-10T02:02:01.739Z,72.20
2022-08-10T02:04:29.310Z,72.20
2022-08-10T02:06:56.815Z,72.30
2022-08-10T02:09:27.388Z,72.30
2022-08-10T02:12:07.134Z,73.70
2022-08-10T02:14:37.182Z,72.30
2022-08-10T02:17:06.337Z,72.90
2022-08-10T02:19:35.212Z,72.10
2022-08-10T02:22:34.894Z,72.00
2022-08-10T02:24:50.101Z,73.30
2022-08-10T02:27:18.049Z,72.00
2022-08-10T02:29:45.593Z,71.80
2022-08-10T02:32:21.108Z,71.90
2022-08-10T02:35:04.548Z,71.80
2022-08-10T02:37:31.568Z,71.90
2022-08-10T02:39:58.330Z,71.80
2022-08-10T02:45:15.579Z,71.80
2022-08-10T02:45:38.540Z,71.80
2022-08-10T02:48:09.171Z,71.80
2022-08-10T02:50:36.753Z,71.70
2022-08-10T02:53:55.269Z,71.80
2022-08-10T02:56:05.124Z,71.80
2022-08-10T02:58:31.802Z,71.80
2022-08-10T03:01:00.176Z,71.70
2022-08-10T03:03:30.275Z,72.30
2022-08-10T03:05:59.645Z,71.80
2022-08-10T03:08:28.522Z,71.70
2022-08-10T03:10:56.210Z,71.70
2022-08-10T03:13:24.352Z,71.60
2022-08-10T03:15:51.593Z,71.70
2022-08-10T03:18:20.249Z,71.70
2022-08-10T03:20:47.547Z,71.80
2022-08-10T03:23:17.446Z,71.80
2022-08-10T03:25:53.324Z,71.80
2022-08-10T03:28:22.492Z,71.80
2022-08-10T03:30:49.436Z,71.80
2022-08-10T03:33:17.175Z,71.80
2022-08-10T03:35:43.860Z,71.80
2022-08-10T03:38:30.509Z,71.80
2022-08-10T03:40:58.823Z,71.80
2022-08-10T03:43:26.496Z,71.70
2022-08-10T03:45:55.123Z,71.70
2022-08-10T03:48:23.199Z,71.70
2022-08-10T03:50:51.960Z,71.70
2022-08-10T03:53:25.105Z,71.70
2022-08-10T03:56:29.507Z,72.40
2022-08-10T03:58:53.442Z,71.70
2022-08-10T04:01:21.091Z,71.70
2022-08-10T04:04:12.383Z,71.70
2022-08-10T04:06:41.278Z,71.70
2022-08-10T04:09:08.058Z,71.70
2022-08-10T04:11:37.009Z,71.70
2022-08-10T04:14:07.838Z,71.70
2022-08-10T04:16:54.641Z,71.80
2022-08-10T04:19:21.808Z,71.90
2022-08-10T04:22:04.930Z,71.80
2022-08-10T04:24:34.259Z,71.80
2022-08-10T04:27:01.796Z,71.80
2022-08-10T04:29:28.604Z,71.80
2022-08-10T04:31:55.332Z,71.80
2022-08-10T04:34:22.476Z,71.80
2022-08-10T04:36:50.961Z,71.80
2022-08-10T04:39:17.886Z,71.70
2022-08-10T04:41:46.261Z,71.70
2022-08-10T04:44:14.526Z,71.70
2022-08-10T04:46:55.973Z,71.70
2022-08-10T04:49:55.549Z,71.80
2022-08-10T04:52:12.167Z,71.70
2022-08-10T04:54:38.866Z,71.60
2022-08-10T04:57:06.195Z,71.70
2022-08-10T04:59:32.927Z,71.70
2022-08-10T05:02:28.382Z,71.60
2022-08-10T05:04:46.318Z,71.70
2022-08-10T05:07:16.488Z,71.70
2022-08-10T05:10:02.312Z,71.70
2022-08-10T05:12:36.298Z,71.70
2022-08-10T05:15:08.005Z,71.70
2022-08-10T05:17:35.772Z,71.70
2022-08-10T05:20:07.480Z,71.70
2022-08-10T05:22:36.047Z,71.80
2022-08-10T05:25:03.072Z,71.80
2022-08-10T05:27:29.758Z,71.80
2022-08-10T05:30:01.184Z,71.90
2022-08-10T05:32:29.654Z,71.90
2022-08-10T05:34:56.306Z,72.00
2022-08-10T05:38:10.820Z,72.00
2022-08-10T05:40:09.974Z,72.00
2022-08-10T05:42:36.864Z,72.10
2022-08-10T05:45:03.907Z,72.00
2022-08-10T05:48:53.979Z,72.60
2022-08-10T05:50:19.163Z,72.00
2022-08-10T05:52:45.855Z,72.00
2022-08-10T05:55:12.837Z,71.90
2022-08-10T05:57:44.514Z,72.00
2022-08-10T06:00:37.164Z,71.80
2022-08-10T06:03:04.621Z,72.00
2022-08-10T06:05:34.249Z,72.00
2022-08-10T06:08:03.936Z,71.90
2022-08-10T06:10:33.061Z,71.90
2022-08-10T06:13:30.737Z,71.90
2022-08-10T06:16:05.938Z,71.90
2022-08-10T06:18:33.046Z,71.80
2022-08-10T06:21:00.760Z,71.90
2022-08-10T06:23:28.777Z,71.90
2022-08-10T06:26:10.293Z,71.80
2022-08-10T06:28:42.841Z,71.90
2022-08-10T06:31:20.137Z,71.90
2022-08-10T06:33:47.545Z,71.90
2022-08-10T06:36:15.154Z,71.90
2022-08-10T06:38:42.328Z,72.00
2022-08-10T06:41:19.470Z,72.00
2022-08-10T06:43:50.096Z,72.00
2022-08-10T06:46:17.463Z,72.10
2022-08-10T06:48:47.486Z,72.20
2022-08-10T06:51:15.499Z,72.20
2022-08-10T06:53:54.055Z,72.30
2022-08-10T06:56:36.558Z,72.20
2022-08-10T06:59:21.089Z,72.10
2022-08-10T07:01:53.803Z,72.30
2022-08-10T07:04:32.024Z,72.50
2022-08-10T07:07:02.236Z,72.30
2022-08-10T07:09:30.578Z,72.40
2022-08-10T07:11:58.153Z,72.50
2022-08-10T07:14:37.397Z,72.50
2022-08-10T07:17:04.745Z,72.40
2022-08-10T07:19:32.091Z,72.50
2022-08-10T07:21:59.437Z,72.70
2022-08-10T07:24:26.346Z,72.70
2022-08-10T07:26:54.892Z,72.60
2022-08-10T07:29:53.275Z,72.70
2022-08-10T07:32:14.067Z,72.70
2022-08-10T07:34:41.563Z,74.00
2022-08-10T07:37:08.720Z,72.80
2022-08-10T07:39:58.243Z,72.70
2022-08-10T07:42:25.492Z,72.80
2022-08-10T07:44:52.394Z,73.00
2022-08-10T07:47:52.758Z,72.70
2022-08-10T07:50:21.984Z,72.80
2022-08-10T07:52:49.210Z,73.00
2022-08-10T07:55:17.275Z,72.80
2022-08-10T07:57:46.215Z,73.10
2022-08-10T08:00:13.219Z,72.90
2022-08-10T08:02:44.308Z,72.90
2022-08-10T08:05:13.606Z,72.90
2022-08-10T08:08:01.099Z,72.90
2022-08-10T08:10:29.084Z,73.00
2022-08-10T08:12:57.934Z,72.90
2022-08-10T08:16:17.291Z,72.80
2022-08-10T08:18:12.690Z,72.90
2022-08-10T08:20:40.522Z,72.70
2022-08-10T08:24:04.512Z,72.70
2022-08-10T08:25:56.833Z,72.80
2022-08-10T08:28:24.350Z,73.10
2022-08-10T08:30:51.342Z,72.90
2022-08-10T08:33:20.077Z,73.10
2022-08-10T08:36:05.552Z,72.90
2022-08-10T08:38:34.858Z,72.80
2022-08-10T08:41:15.511Z,72.80
2022-08-10T08:43:58.345Z,72.70
2022-08-10T08:46:33.283Z,73.10
2022-08-10T08:49:02.884Z,73.10
2022-08-10T08:52:17.519Z,73.20
2022-08-10T08:54:43.942Z,73.30
2022-08-10T08:57:13.435Z,73.00
2022-08-10T09:00:32.583Z,72.90
2022-08-10T09:03:05.378Z,72.90
2022-08-10T09:05:58.407Z,73.10
2022-08-10T09:08:47.592Z,73.00
2022-08-10T09:11:14.321Z,72.90
2022-08-10T09:13:59.835Z,73.00
2022-08-10T09:16:45.843Z,72.90
2022-08-10T09:19:35.682Z,72.90
2022-08-10T09:22:26.078Z,73.00
2022-08-10T09:25:06.423Z,72.80
2022-08-10T09:27:35.966Z,72.80
2022-08-10T09:30:07.420Z,72.70
2022-08-10T09:36:16.930Z,72.40
2022-08-10T09:36:20.307Z,72.50
2022-08-10T09:38:47.515Z,72.70
2022-08-10T09:41:32.865Z,72.70
2022-08-10T09:44:08.713Z,72.60
2022-08-10T09:46:47.659Z,72.70
2022-08-10T09:49:17.255Z,72.70
2022-08-10T09:51:50.862Z,72.70
2022-08-10T09:54:25.479Z,72.60
2022-08-10T10:00:10.862Z,73.10
2022-08-10T10:02:55.997Z,73.00
2022-08-10T10:05:38.176Z,72.90
2022-08-10T10:08:04.978Z,73.10
2022-08-10T10:10:54.708Z,71.50
2022-08-10T10:13:56.058Z,69.80
2022-08-10T10:16:27.871Z,69.70
2022-08-10T10:19:01.658Z,69.70
2022-08-10T10:21:55.877Z,70.50
2022-08-10T10:24:45.643Z,70.70
2022-08-10T10:27:31.355Z,70.90
2022-08-10T10:30:11.509Z,71.00
2022-08-10T10:32:42.742Z,70.50
2022-08-10T10:35:15.399Z,71.20
2022-08-10T10:38:02.263Z,71.00
2022-08-10T10:40:33.980Z,71.10
2022-08-10T10:43:05.638Z,71.40
2022-08-10T10:45:50.496Z,70.40
2022-08-10T10:48:17.642Z,71.20
2022-08-10T10:50:54.104Z,71.00
2022-08-10T10:53:26.759Z,71.20
2022-08-10T10:56:14.670Z,71.50
2022-08-10T10:58:55.591Z,71.10
2022-08-10T11:01:22.366Z,71.40
2022-08-10T11:03:52.158Z,71.40
2022-08-10T11:06:34.405Z,71.50
2022-08-10T11:10:04.934Z,71.60
2022-08-10T11:12:04.788Z,71.60
2022-08-10T11:14:34.908Z,71.70
2022-08-10T11:17:05.195Z,71.70
2022-08-10T11:20:01.643Z,71.60
2022-08-10T11:22:29.835Z,71.40
2022-08-10T11:25:10.566Z,71.80
2022-08-10T11:27:49.160Z,71.70
2022-08-10T11:30:20.371Z,70.30
2022-08-10T11:32:59.296Z,71.10
2022-08-10T11:35:34.603Z,71.30
2022-08-10T11:38:31.785Z,71.70
2022-08-10T11:41:14.683Z,71.80
2022-08-10T11:44:04.852Z,71.70
2022-08-10T11:46:33.579Z,72.00
2022-08-10T11:49:04.102Z,71.70
2022-08-10T11:51:38.967Z,71.70
2022-08-10T11:54:08.901Z,71.70
2022-08-10T11:56:47.186Z,71.80
2022-08-10T11:59:37.007Z,71.70
2022-08-10T12:02:05.216Z,71.40
2022-08-10T12:04:32.982Z,71.70
2022-08-10T12:07:00.389Z,71.70
2022-08-10T12:10:03.765Z,71.50
2022-08-10T12:12:15.754Z,71.90
2022-08-10T12:14:52.701Z,71.60
2022-08-10T12:17:25.196Z,71.40
2022-08-10T12:19:59.872Z,71.40
2022-08-10T12:22:55.095Z,71.50
2022-08-10T12:25:57.345Z,71.80
2022-08-10T12:28:21.939Z,72.10
2022-08-10T12:31:11.147Z,72.00
2022-08-10T12:34:02.200Z,71.70
2022-08-10T12:36:52.667Z,72.20
2022-08-10T12:39:22.108Z,72.10
2022-08-10T12:41:48.819Z,72.10
2022-08-10T12:44:20.464Z,71.90
2022-08-10T12:46:51.071Z,71.50
2022-08-10T12:49:20.830Z,72.00
2022-08-10T12:51:50.281Z,71.40
2022-08-10T12:54:22.630Z,71.30
2022-08-10T12:57:00.173Z,71.60
2022-08-10T12:59:27.932Z,71.90
2022-08-10T13:02:07.808Z,71.30
2022-08-10T13:04:38.643Z,71.50
2022-08-10T13:07:05.624Z,70.20
2022-08-10T13:09:33.089Z,70.70
2022-08-10T13:12:37.209Z,70.40
2022-08-10T13:15:45.226Z,69.50
2022-08-10T13:17:53.291Z,69.70
2022-08-10T13:20:40.892Z,69.00
2022-08-10T13:23:11.905Z,69.80
2022-08-10T13:25:40.786Z,70.40
2022-08-10T13:28:35.768Z,70.60
2022-08-10T13:30:57.115Z,71.10
2022-08-10T13:34:39.289Z,71.20
2022-08-10T13:36:14.987Z,71.70
2022-08-10T13:38:43.956Z,71.40
2022-08-10T13:41:11.247Z,71.90
2022-08-10T13:43:48.308Z,72.60
2022-08-10T13:46:22.106Z,72.20
2022-08-10T13:48:50.785Z,72.30
2022-08-10T13:51:17.763Z,72.60
2022-08-10T13:53:45.963Z,72.10
2022-08-10T13:56:13.917Z,72.40
2022-08-10T13:58:41.447Z,72.50
2022-08-10T14:01:10.777Z,71.80
2022-08-10T14:03:38.878Z,71.80
2022-08-10T14:06:06.978Z,72.00
2022-08-10T14:08:35.465Z,72.30
2022-08-10T14:11:11.198Z,72.40
2022-08-10T14:13:52.056Z,72.40
2022-08-10T14:16:19.003Z,71.90
2022-08-10T14:18:47.430Z,70.30
2022-08-10T14:21:14.912Z,68.00
2022-08-10T14:23:43.171Z,66.90
2022-08-10T14:26:28.598Z,66.80
2022-08-10T14:28:57.433Z,67.30
2022-08-10T14:31:28.964Z,67.50
2022-08-10T14:33:57.267Z,68.50
2022-08-10T14:36:30.010Z,68.80
2022-08-10T14:38:58.342Z,69.50
2022-08-10T14:42:03.817Z,69.60
2022-08-10T14:44:14.708Z,69.60
2022-08-10T14:46:45.792Z,69.40
2022-08-10T14:49:25.615Z,70.60
2022-08-10T14:51:57.813Z,69.70
2022-08-10T14:54:28.939Z,69.80
2022-08-10T14:57:02.635Z,70.20
2022-08-10T15:00:22.995Z,70.60
2022-08-10T15:02:40.391Z,70.50
2022-08-10T15:05:17.860Z,69.90
2022-08-10T15:07:48.244Z,70.80
2022-08-10T15:10:27.065Z,69.90
2022-08-10T15:12:55.333Z,70.60
2022-08-10T15:15:27.961Z,70.30
2022-08-10T15:17:57.512Z,70.80
2022-08-10T15:20:25.972Z,70.40
2022-08-10T15:22:54.293Z,70.50
2022-08-10T15:25:25.617Z,69.70
2022-08-10T15:28:11.917Z,70.30
2022-08-10T15:30:40.534Z,69.90
2022-08-10T15:34:03.272Z,70.70
2022-08-10T15:36:35.875Z,70.00
2022-08-10T15:39:05.147Z,69.70
2022-08-10T15:41:57.583Z,69.80
2022-08-10T15:44:34.795Z,70.10
2022-08-10T15:47:05.475Z,69.90
2022-08-10T15:49:36.343Z,70.00
2022-08-10T15:52:04.535Z,70.90
2022-08-10T15:54:34.366Z,70.10
2022-08-10T15:57:03.928Z,69.20
2022-08-10T15:59:49.447Z,69.80
2022-08-10T16:02:25.064Z,70.30
2022-08-10T16:05:02.368Z,70.50
2022-08-10T16:07:46.297Z,70.80
2022-08-10T16:10:25.306Z,70.90
2022-08-10T16:12:59.790Z,70.60
2022-08-10T16:15:28.082Z,70.90
2022-08-10T16:17:57.223Z,70.90
2022-08-10T16:20:27.862Z,70.80
2022-08-10T16:22:58.726Z,70.80
2022-08-10T16:25:48.615Z,70.60
2022-08-10T16:28:23.879Z,71.20
2022-08-10T16:30:53.083Z,71.30
2022-08-10T16:33:24.822Z,71.50
2022-08-10T16:36:14.906Z,71.90
2022-08-10T16:38:43.027Z,71.70
2022-08-10T16:42:00.818Z,71.80
2022-08-10T16:43:59.238Z,71.70
2022-08-10T16:46:26.622Z,70.30
2022-08-10T16:48:53.460Z,70.40
2022-08-10T16:51:24.167Z,70.70
2022-08-10T16:53:51.794Z,71.20
2022-08-10T16:56:24.362Z,71.50
2022-08-10T16:58:53.790Z,71.60
2022-08-10T17:01:23.191Z,71.90
2022-08-10T17:04:07.930Z,71.60
2022-08-10T17:06:36.237Z,71.70
2022-08-10T17:09:04.657Z,72.00
2022-08-10T17:11:33.339Z,72.00
2022-08-10T17:14:01.909Z,72.10
2022-08-10T17:16:55.291Z,72.20
2022-08-10T17:19:23.338Z,71.70
2022-08-10T17:21:56.173Z,72.00
2022-08-10T17:24:25.449Z,72.00
2022-08-10T17:26:52.867Z,72.30
2022-08-10T17:29:58.860Z,72.30
2022-08-10T17:32:19.907Z,72.60
2022-08-10T17:34:48.396Z,72.40
2022-08-10T17:37:20.441Z,72.50
2022-08-10T17:39:52.686Z,72.40
2022-08-10T17:42:21.756Z,72.70
2022-08-10T17:44:49.595Z,72.60
2022-08-10T17:47:16.681Z,72.70
2022-08-10T17:49:44.623Z,72.90
2022-08-10T17:52:13.907Z,72.80
2022-08-10T17:54:44.308Z,72.80
2022-08-10T17:57:13.928Z,73.00
2022-08-10T17:59:40.891Z,73.10
2022-08-10T18:02:12.637Z,72.80
2022-08-10T18:04:41.727Z,73.10
2022-08-10T18:07:09.932Z,73.30
2022-08-10T18:09:44.703Z,73.30
2022-08-10T18:12:17.944Z,73.10
2022-08-10T18:14:46.860Z,73.10
2022-08-10T18:17:14.891Z,73.10
2022-08-10T18:19:43.527Z,73.30
2022-08-10T18:22:11.806Z,73.20
2022-08-10T18:24:39.429Z,73.10
2022-08-10T18:27:07.730Z,73.20
2022-08-10T18:29:34.977Z,73.50
2022-08-10T18:32:03.000Z,73.60
2022-08-10T18:34:31.800Z,73.60
2022-08-10T18:36:59.316Z,73.50
2022-08-10T18:39:27.813Z,73.40
2022-08-10T18:42:04.642Z,73.40
2022-08-10T18:44:36.576Z,73.30
2022-08-10T18:47:06.549Z,73.30
2022-08-10T18:49:40.423Z,73.30
2022-08-10T18:52:08.396Z,73.40
2022-08-10T18:54:44.165Z,73.50
2022-08-10T18:57:30.643Z,73.50
2022-08-10T19:00:07.581Z,73.50
2022-08-10T19:02:44.104Z,73.60
2022-08-10T19:05:30.147Z,73.70
2022-08-10T19:08:31.233Z,73.70
2022-08-10T19:11:15.104Z,73.70
2022-08-10T19:13:41.735Z,73.70
2022-08-10T19:16:19.473Z,73.70
2022-08-10T19:19:04.714Z,73.60
2022-08-10T19:21:34.935Z,73.30
2022-08-10T19:24:13.830Z,73.00
2022-08-10T19:26:46.025Z,72.60
2022-08-10T19:30:09.161Z,72.00
2022-08-10T19:32:13.936Z,71.80
2022-08-10T19:34:51.286Z,70.70
2022-08-10T19:37:32.557Z,71.40
2022-08-10T19:40:11.104Z,71.70
2022-08-10T19:42:52.371Z,72.40
2022-08-10T19:46:01.405Z,72.20
2022-08-10T19:48:15.393Z,70.90
2022-08-10T19:50:51.908Z,70.50
2022-08-10T19:53:24.883Z,70.50
2022-08-10T19:56:30.987Z,70.80
2022-08-10T19:59:11.500Z,70.70
2022-08-10T20:01:55.697Z,70.80
2022-08-10T20:04:29.402Z,70.80
2022-08-10T20:07:01.372Z,70.60
2022-08-10T20:09:34.020Z,70.70
2022-08-10T20:12:06.243Z,70.70
2022-08-10T20:14:39.163Z,70.70
2022-08-10T20:17:09.566Z,70.80
2022-08-10T20:19:53.596Z,70.80
2022-08-10T20:22:30.393Z,70.90
2022-08-10T20:25:01.441Z,70.70
2022-08-10T20:28:00.435Z,70.80
2022-08-10T20:30:31.078Z,70.70
2022-08-10T20:33:08.738Z,70.90
2022-08-10T20:35:44.223Z,70.90
2022-08-10T20:38:14.545Z,70.80
2022-08-10T20:40:47.288Z,70.70
2022-08-10T20:43:24.194Z,70.50
2022-08-10T20:46:08.456Z,70.50
2022-08-10T20:48:35.849Z,70.50
2022-08-10T20:51:04.406Z,70.40
2022-08-10T20:53:35.864Z,70.70
2022-08-10T20:56:21.604Z,70.60
2022-08-10T20:59:00.246Z,70.50
2022-08-10T21:02:11.783Z,70.60
2022-08-10T21:04:32.104Z,70.80
2022-08-10T21:07:28.223Z,70.60
2022-08-10T21:10:16.725Z,70.80
2022-08-10T21:13:08.147Z,70.60
2022-08-10T21:15:41.655Z,70.80
2022-08-10T21:18:20.670Z,70.70
2022-08-10T21:20:54.121Z,70.50
2022-08-10T21:23:24.919Z,70.50
2022-08-10T21:26:16.286Z,70.70
2022-08-10T21:28:44.801Z,70.70
2022-08-10T21:31:28.912Z,70.60
2022-08-10T21:33:55.508Z,70.50
2022-08-10T21:36:26.639Z,70.60
2022-08-10T21:39:12.347Z,70.50
2022-08-10T21:42:03.628Z,70.70
2022-08-10T21:44:52.156Z,70.70
2022-08-10T21:48:06.374Z,70.70
2022-08-10T21:50:52.980Z,70.70
2022-08-10T21:53:44.907Z,70.70
2022-08-10T21:56:33.642Z,70.70
2022-08-10T21:59:21.659Z,70.80
2022-08-10T22:02:12.799Z,70.70
2022-08-10T22:04:58.429Z,71.10
2022-08-10T22:07:45.642Z,70.70
2022-08-10T22:10:32.886Z,70.70
2022-08-10T22:13:20.095Z,70.90
2022-08-10T22:16:11.436Z,70.80
2022-08-10T22:19:02.425Z,71.00
2022-08-10T22:22:27.183Z,71.00
2022-08-10T22:25:21.684Z,71.00
2022-08-10T22:28:12.496Z,71.10
2022-08-10T22:31:29.969Z,71.10
2022-08-10T22:34:37.267Z,71.10
2022-08-10T22:37:41.757Z,71.10
2022-08-10T22:40:31.674Z,71.30
2022-08-10T22:43:33.560Z,71.20
2022-08-10T22:46:23.108Z,71.30
2022-08-10T22:49:01.979Z,71.30
2022-08-10T22:51:38.148Z,71.30
2022-08-10T22:54:30.649Z,71.20
2022-08-10T22:57:19.935Z,71.40
2022-08-10T22:59:47.049Z,71.30
2022-08-10T23:02:17.125Z,71.30
2022-08-10T23:04:47.165Z,71.30
2022-08-10T23:07:16.883Z,71.40
2022-08-10T23:09:44.766Z,71.30
2022-08-10T23:12:18.118Z,71.40
2022-08-10T23:14:50.123Z,71.30
2022-08-10T23:18:01.214Z,71.40
2022-08-10T23:20:29.992Z,71.40
2022-08-10T23:23:02.769Z,71.50
2022-08-10T23:25:33.578Z,71.50
2022-08-10T23:28:03.155Z,71.50
2022-08-10T23:30:42.822Z,71.60
2022-08-10T23:33:12.933Z,71.60
2022-08-10T23:36:05.702Z,71.50
2022-08-10T23:38:35.833Z,71.50
2022-08-10T23:41:03.490Z,71.50
2022-08-10T23:44:02.472Z,71.50
2022-08-10T23:46:22.726Z,71.50
2022-08-10T23:48:52.229Z,71.70
2022-08-10T23:51:19.786Z,71.60
2022-08-10T23:53:48.500Z,71.80
2022-08-10T23:56:16.514Z,71.70
2022-08-10T23:58:47.894Z,71.70
